sensor_id;sensor_type;location;lat;lon;timestamp;P1;durP1;ratioP1;P2;durP2;ratioP2
47539;SDS011;33280;52.152;21.052;2022-12-18T00:01:13;37.83;;;16.30;;
47539;SDS011;33280;52.152;21.052;2022-12-18T00:03:42;35.83;;;16.67;;
47539;SDS011;33280;52.152;21.052;2022-12-18T00:06:10;39.90;;;17.20;;
47539;SDS011;33280;52.152;21.052;2022-12-18T00:08:38;37.97;;;16.47;;
47539;SDS011;33280;52.152;21.052;2022-12-18T00:11:12;37.73;;;16.10;;
47539;SDS011;33280;52.152;21.052;2022-12-18T00:13:44;36.30;;;16.40;;
47539;SDS011;33280;52.152;21.052;2022-12-18T00:16:15;32.87;;;14.73;;
47539;SDS011;33280;52.152;21.052;2022-12-18T00:18:50;32.30;;;14.73;;
47539;SDS011;33280;52.152;21.052;2022-12-18T00:21:19;38.67;;;16.37;;
47539;SDS011;33280;52.152;21.052;2022-12-18T00:23:47;31.27;;;14.17;;
47539;SDS011;33280;52.152;21.052;2022-12-18T00:26:22;35.37;;;15.23;;
47539;SDS011;33280;52.152;21.052;2022-12-18T00:28:51;38.77;;;16.20;;
47539;SDS011;33280;52.152;21.052;2022-12-18T00:31:22;34.20;;;13.87;;
47539;SDS011;33280;52.152;21.052;2022-12-18T00:33:53;36.23;;;15.33;;
47539;SDS011;33280;52.152;21.052;2022-12-18T00:36:23;34.30;;;15.00;;
47539;SDS011;33280;52.152;21.052;2022-12-18T00:38:55;34.97;;;14.90;;
47539;SDS011;33280;52.152;21.052;2022-12-18T00:41:23;35.47;;;15.60;;
47539;SDS011;33280;52.152;21.052;2022-12-18T00:44:09;37.53;;;15.57;;
47539;SDS011;33280;52.152;21.052;2022-12-18T00:46:41;38.83;;;15.90;;
47539;SDS011;33280;52.152;21.052;2022-12-18T00:49:10;34.90;;;15.00;;
47539;SDS011;33280;52.152;21.052;2022-12-18T00:51:40;38.23;;;15.73;;
47539;SDS011;33280;52.152;21.052;2022-12-18T00:54:07;35.70;;;15.03;;
47539;SDS011;33280;52.152;21.052;2022-12-18T00:56:35;32.50;;;14.23;;
47539;SDS011;33280;52.152;21.052;2022-12-18T00:59:18;35.70;;;15.30;;
47539;SDS011;33280;52.152;21.052;2022-12-18T01:01:45;36.30;;;15.10;;
47539;SDS011;33280;52.152;21.052;2022-12-18T01:04:13;33.97;;;15.17;;
47539;SDS011;33280;52.152;21.052;2022-12-18T01:06:40;33.30;;;15.27;;
47539;SDS011;33280;52.152;21.052;2022-12-18T01:09:07;37.23;;;15.37;;
47539;SDS011;33280;52.152;21.052;2022-12-18T01:11:34;38.33;;;15.90;;
47539;SDS011;33280;52.152;21.052;2022-12-18T01:14:01;36.30;;;16.00;;
47539;SDS011;33280;52.152;21.052;2022-12-18T01:16:28;38.50;;;15.67;;
47539;SDS011;33280;52.152;21.052;2022-12-18T01:18:55;38.67;;;15.67;;
47539;SDS011;33280;52.152;21.052;2022-12-18T01:21:22;36.53;;;14.80;;
47539;SDS011;33280;52.152;21.052;2022-12-18T01:23:51;37.97;;;15.53;;
47539;SDS011;33280;52.152;21.052;2022-12-18T01:26:20;38.77;;;15.83;;
47539;SDS011;33280;52.152;21.052;2022-12-18T01:28:47;36.97;;;15.20;;
47539;SDS011;33280;52.152;21.052;2022-12-18T01:31:24;36.80;;;15.53;;
47539;SDS011;33280;52.152;21.052;2022-12-18T01:33:56;36.00;;;15.53;;
47539;SDS011;33280;52.152;21.052;2022-12-18T01:36:30;37.23;;;15.43;;
47539;SDS011;33280;52.152;21.052;2022-12-18T01:38:59;37.73;;;15.60;;
47539;SDS011;33280;52.152;21.052;2022-12-18T01:41:28;35.63;;;16.27;;
47539;SDS011;33280;52.152;21.052;2022-12-18T01:52:47;37.10;;;14.77;;
47539;SDS011;33280;52.152;21.052;2022-12-18T01:55:18;37.23;;;14.90;;
47539;SDS011;33280;52.152;21.052;2022-12-18T01:57:49;37.43;;;15.43;;
47539;SDS011;33280;52.152;21.052;2022-12-18T02:00:19;35.57;;;14.57;;
47539;SDS011;33280;52.152;21.052;2022-12-18T02:02:48;36.33;;;14.80;;
47539;SDS011;33280;52.152;21.052;2022-12-18T02:05:18;39.27;;;15.93;;
47539;SDS011;33280;52.152;21.052;2022-12-18T02:10:34;34.03;;;13.80;;
47539;SDS011;33280;52.152;21.052;2022-12-18T02:13:50;32.23;;;14.23;;
47539;SDS011;33280;52.152;21.052;2022-12-18T02:16:20;32.13;;;14.30;;
47539;SDS011;33280;52.152;21.052;2022-12-18T02:18:52;37.07;;;14.23;;
47539;SDS011;33280;52.152;21.052;2022-12-18T02:21:31;38.67;;;14.40;;
47539;SDS011;33280;52.152;21.052;2022-12-18T02:26:59;33.73;;;13.67;;
47539;SDS011;33280;52.152;21.052;2022-12-18T02:29:32;30.87;;;12.97;;
47539;SDS011;33280;52.152;21.052;2022-12-18T02:32:05;36.53;;;14.90;;
47539;SDS011;33280;52.152;21.052;2022-12-18T02:34:37;39.37;;;14.23;;
47539;SDS011;33280;52.152;21.052;2022-12-18T02:37:06;37.23;;;13.87;;
47539;SDS011;33280;52.152;21.052;2022-12-18T02:39:38;33.40;;;13.03;;
47539;SDS011;33280;52.152;21.052;2022-12-18T02:42:07;35.30;;;12.83;;
47539;SDS011;33280;52.152;21.052;2022-12-18T02:44:41;40.00;;;14.27;;
47539;SDS011;33280;52.152;21.052;2022-12-18T02:47:11;37.20;;;14.43;;
47539;SDS011;33280;52.152;21.052;2022-12-18T02:55:18;36.57;;;14.33;;
47539;SDS011;33280;52.152;21.052;2022-12-18T03:00:33;32.83;;;13.83;;
47539;SDS011;33280;52.152;21.052;2022-12-18T03:05:36;35.17;;;14.27;;
47539;SDS011;33280;52.152;21.052;2022-12-18T03:08:08;36.40;;;14.63;;
47539;SDS011;33280;52.152;21.052;2022-12-18T03:11:02;36.63;;;14.60;;
47539;SDS011;33280;52.152;21.052;2022-12-18T03:13:39;33.57;;;14.03;;
47539;SDS011;33280;52.152;21.052;2022-12-18T03:16:16;34.47;;;13.73;;
47539;SDS011;33280;52.152;21.052;2022-12-18T03:18:53;36.70;;;14.30;;
47539;SDS011;33280;52.152;21.052;2022-12-18T03:21:26;41.70;;;14.30;;
47539;SDS011;33280;52.152;21.052;2022-12-18T03:23:58;38.20;;;14.50;;
47539;SDS011;33280;52.152;21.052;2022-12-18T03:26:26;39.47;;;14.40;;
47539;SDS011;33280;52.152;21.052;2022-12-18T03:28:57;34.93;;;13.67;;
47539;SDS011;33280;52.152;21.052;2022-12-18T03:31:28;39.73;;;14.70;;
47539;SDS011;33280;52.152;21.052;2022-12-18T03:34:01;39.27;;;14.93;;
47539;SDS011;33280;52.152;21.052;2022-12-18T03:36:33;39.80;;;14.83;;
47539;SDS011;33280;52.152;21.052;2022-12-18T03:39:00;39.87;;;15.20;;
47539;SDS011;33280;52.152;21.052;2022-12-18T03:41:33;36.27;;;15.13;;
47539;SDS011;33280;52.152;21.052;2022-12-18T03:44:24;38.90;;;15.03;;
47539;SDS011;33280;52.152;21.052;2022-12-18T03:52:28;40.00;;;14.63;;
47539;SDS011;33280;52.152;21.052;2022-12-18T03:55:01;36.60;;;14.20;;
47539;SDS011;33280;52.152;21.052;2022-12-18T03:57:29;34.80;;;14.43;;
47539;SDS011;33280;52.152;21.052;2022-12-18T04:00:03;38.53;;;14.93;;
47539;SDS011;33280;52.152;21.052;2022-12-18T04:02:49;37.97;;;14.57;;
47539;SDS011;33280;52.152;21.052;2022-12-18T04:05:19;34.63;;;14.13;;
47539;SDS011;33280;52.152;21.052;2022-12-18T04:07:48;41.93;;;15.20;;
47539;SDS011;33280;52.152;21.052;2022-12-18T04:10:18;43.23;;;14.07;;
47539;SDS011;33280;52.152;21.052;2022-12-18T04:12:45;38.83;;;13.90;;
47539;SDS011;33280;52.152;21.052;2022-12-18T04:15:12;39.40;;;14.23;;
47539;SDS011;33280;52.152;21.052;2022-12-18T04:17:42;37.57;;;14.43;;
47539;SDS011;33280;52.152;21.052;2022-12-18T04:20:14;37.13;;;14.37;;
47539;SDS011;33280;52.152;21.052;2022-12-18T04:22:42;35.00;;;14.93;;
47539;SDS011;33280;52.152;21.052;2022-12-18T04:25:09;37.67;;;14.50;;
47539;SDS011;33280;52.152;21.052;2022-12-18T04:27:38;34.57;;;13.87;;
47539;SDS011;33280;52.152;21.052;2022-12-18T04:30:05;34.73;;;13.90;;
47539;SDS011;33280;52.152;21.052;2022-12-18T04:32:33;36.17;;;14.10;;
47539;SDS011;33280;52.152;21.052;2022-12-18T04:35:00;41.10;;;15.50;;
47539;SDS011;33280;52.152;21.052;2022-12-18T04:37:27;37.57;;;14.33;;
47539;SDS011;33280;52.152;21.052;2022-12-18T04:39:54;35.67;;;13.67;;
47539;SDS011;33280;52.152;21.052;2022-12-18T04:42:21;34.83;;;14.40;;
47539;SDS011;33280;52.152;21.052;2022-12-18T04:44:47;33.47;;;13.77;;
47539;SDS011;33280;52.152;21.052;2022-12-18T04:47:14;34.43;;;13.60;;
47539;SDS011;33280;52.152;21.052;2022-12-18T04:49:41;34.77;;;13.83;;
47539;SDS011;33280;52.152;21.052;2022-12-18T04:52:08;36.40;;;14.20;;
47539;SDS011;33280;52.152;21.052;2022-12-18T04:54:35;36.73;;;13.57;;
47539;SDS011;33280;52.152;21.052;2022-12-18T04:57:01;33.43;;;13.30;;
47539;SDS011;33280;52.152;21.052;2022-12-18T04:59:28;37.33;;;13.40;;
47539;SDS011;33280;52.152;21.052;2022-12-18T05:01:55;31.40;;;13.07;;
47539;SDS011;33280;52.152;21.052;2022-12-18T05:04:22;33.67;;;13.20;;
47539;SDS011;33280;52.152;21.052;2022-12-18T05:06:49;36.37;;;13.83;;
47539;SDS011;33280;52.152;21.052;2022-12-18T05:09:16;33.67;;;13.33;;
47539;SDS011;33280;52.152;21.052;2022-12-18T05:11:44;32.13;;;13.17;;
47539;SDS011;33280;52.152;21.052;2022-12-18T05:14:12;37.80;;;13.97;;
47539;SDS011;33280;52.152;21.052;2022-12-18T05:16:39;39.23;;;14.10;;
47539;SDS011;33280;52.152;21.052;2022-12-18T05:19:06;37.50;;;13.30;;
47539;SDS011;33280;52.152;21.052;2022-12-18T05:21:33;30.70;;;12.73;;
47539;SDS011;33280;52.152;21.052;2022-12-18T05:24:00;40.43;;;14.17;;
47539;SDS011;33280;52.152;21.052;2022-12-18T05:26:27;35.63;;;13.80;;
47539;SDS011;33280;52.152;21.052;2022-12-18T05:28:54;32.60;;;13.43;;
47539;SDS011;33280;52.152;21.052;2022-12-18T05:31:22;40.33;;;14.03;;
47539;SDS011;33280;52.152;21.052;2022-12-18T05:33:49;35.27;;;13.30;;
47539;SDS011;33280;52.152;21.052;2022-12-18T05:36:15;36.63;;;14.20;;
47539;SDS011;33280;52.152;21.052;2022-12-18T05:38:42;41.20;;;14.10;;
47539;SDS011;33280;52.152;21.052;2022-12-18T05:41:09;42.00;;;14.33;;
47539;SDS011;33280;52.152;21.052;2022-12-18T05:43:36;35.93;;;14.33;;
47539;SDS011;33280;52.152;21.052;2022-12-18T05:46:06;38.20;;;13.77;;
47539;SDS011;33280;52.152;21.052;2022-12-18T05:48:34;37.23;;;14.27;;
47539;SDS011;33280;52.152;21.052;2022-12-18T05:51:05;40.60;;;15.33;;
47539;SDS011;33280;52.152;21.052;2022-12-18T05:53:35;37.83;;;14.20;;
47539;SDS011;33280;52.152;21.052;2022-12-18T05:56:04;39.00;;;14.70;;
47539;SDS011;33280;52.152;21.052;2022-12-18T05:58:32;43.37;;;16.13;;
47539;SDS011;33280;52.152;21.052;2022-12-18T06:01:16;49.20;;;16.30;;
47539;SDS011;33280;52.152;21.052;2022-12-18T06:03:45;50.80;;;16.03;;
47539;SDS011;33280;52.152;21.052;2022-12-18T06:06:16;51.50;;;16.40;;
47539;SDS011;33280;52.152;21.052;2022-12-18T06:08:45;48.97;;;16.30;;
47539;SDS011;33280;52.152;21.052;2022-12-18T06:11:16;46.07;;;17.20;;
47539;SDS011;33280;52.152;21.052;2022-12-18T06:13:45;45.13;;;15.57;;
47539;SDS011;33280;52.152;21.052;2022-12-18T06:16:12;48.10;;;16.47;;
47539;SDS011;33280;52.152;21.052;2022-12-18T06:18:40;49.27;;;16.30;;
47539;SDS011;33280;52.152;21.052;2022-12-18T06:21:06;45.00;;;15.80;;
47539;SDS011;33280;52.152;21.052;2022-12-18T06:23:33;46.73;;;16.03;;
47539;SDS011;33280;52.152;21.052;2022-12-18T06:26:09;45.70;;;16.80;;
47539;SDS011;33280;52.152;21.052;2022-12-18T06:28:37;45.40;;;15.43;;
47539;SDS011;33280;52.152;21.052;2022-12-18T06:31:04;44.33;;;15.53;;
47539;SDS011;33280;52.152;21.052;2022-12-18T06:33:32;48.57;;;16.57;;
47539;SDS011;33280;52.152;21.052;2022-12-18T06:36:00;46.67;;;16.97;;
47539;SDS011;33280;52.152;21.052;2022-12-18T06:38:28;53.00;;;16.90;;
47539;SDS011;33280;52.152;21.052;2022-12-18T06:40:55;49.37;;;16.17;;
47539;SDS011;33280;52.152;21.052;2022-12-18T06:43:22;51.47;;;16.67;;
47539;SDS011;33280;52.152;21.052;2022-12-18T06:45:48;44.57;;;17.10;;
47539;SDS011;33280;52.152;21.052;2022-12-18T06:48:19;50.80;;;16.70;;
47539;SDS011;33280;52.152;21.052;2022-12-18T06:50:46;44.63;;;15.77;;
47539;SDS011;33280;52.152;21.052;2022-12-18T06:53:13;40.53;;;15.33;;
47539;SDS011;33280;52.152;21.052;2022-12-18T06:55:40;46.57;;;16.07;;
47539;SDS011;33280;52.152;21.052;2022-12-18T06:58:07;49.60;;;16.17;;
47539;SDS011;33280;52.152;21.052;2022-12-18T07:00:36;43.87;;;16.13;;
47539;SDS011;33280;52.152;21.052;2022-12-18T07:03:03;49.10;;;16.50;;
47539;SDS011;33280;52.152;21.052;2022-12-18T07:05:30;47.30;;;15.43;;
47539;SDS011;33280;52.152;21.052;2022-12-18T07:07:57;43.07;;;15.43;;
47539;SDS011;33280;52.152;21.052;2022-12-18T07:10:24;43.70;;;15.87;;
47539;SDS011;33280;52.152;21.052;2022-12-18T07:12:51;46.03;;;16.17;;
47539;SDS011;33280;52.152;21.052;2022-12-18T07:15:18;43.53;;;16.90;;
47539;SDS011;33280;52.152;21.052;2022-12-18T07:17:45;44.70;;;15.57;;
47539;SDS011;33280;52.152;21.052;2022-12-18T07:20:12;43.73;;;15.57;;
47539;SDS011;33280;52.152;21.052;2022-12-18T07:22:41;42.87;;;15.60;;
47539;SDS011;33280;52.152;21.052;2022-12-18T07:25:08;44.30;;;15.70;;
47539;SDS011;33280;52.152;21.052;2022-12-18T07:27:34;46.03;;;16.13;;
47539;SDS011;33280;52.152;21.052;2022-12-18T07:30:01;50.73;;;16.00;;
47539;SDS011;33280;52.152;21.052;2022-12-18T07:32:29;44.07;;;15.40;;
47539;SDS011;33280;52.152;21.052;2022-12-18T07:34:58;47.57;;;16.10;;
47539;SDS011;33280;52.152;21.052;2022-12-18T07:37:25;44.70;;;16.03;;
47539;SDS011;33280;52.152;21.052;2022-12-18T07:39:52;44.83;;;16.17;;
47539;SDS011;33280;52.152;21.052;2022-12-18T07:42:19;42.63;;;15.63;;
47539;SDS011;33280;52.152;21.052;2022-12-18T07:45:02;45.60;;;15.53;;
47539;SDS011;33280;52.152;21.052;2022-12-18T07:47:30;43.23;;;16.10;;
47539;SDS011;33280;52.152;21.052;2022-12-18T07:49:59;44.13;;;15.90;;
47539;SDS011;33280;52.152;21.052;2022-12-18T07:52:26;40.00;;;14.63;;
47539;SDS011;33280;52.152;21.052;2022-12-18T07:54:53;46.53;;;16.33;;
47539;SDS011;33280;52.152;21.052;2022-12-18T07:57:20;44.67;;;16.03;;
47539;SDS011;33280;52.152;21.052;2022-12-18T08:00:07;47.17;;;16.73;;
47539;SDS011;33280;52.152;21.052;2022-12-18T08:02:34;49.97;;;17.00;;
47539;SDS011;33280;52.152;21.052;2022-12-18T08:05:01;48.63;;;17.13;;
47539;SDS011;33280;52.152;21.052;2022-12-18T08:07:29;51.03;;;17.13;;
47539;SDS011;33280;52.152;21.052;2022-12-18T08:09:57;45.03;;;16.57;;
47539;SDS011;33280;52.152;21.052;2022-12-18T08:12:24;44.70;;;16.27;;
47539;SDS011;33280;52.152;21.052;2022-12-18T08:14:51;51.50;;;17.27;;
47539;SDS011;33280;52.152;21.052;2022-12-18T08:17:19;50.17;;;16.97;;
47539;SDS011;33280;52.152;21.052;2022-12-18T08:19:47;50.47;;;16.60;;
47539;SDS011;33280;52.152;21.052;2022-12-18T08:22:14;43.73;;;15.80;;
47539;SDS011;33280;52.152;21.052;2022-12-18T08:24:40;46.03;;;17.53;;
47539;SDS011;33280;52.152;21.052;2022-12-18T08:27:07;42.57;;;16.33;;
47539;SDS011;33280;52.152;21.052;2022-12-18T08:29:54;46.43;;;16.77;;
47539;SDS011;33280;52.152;21.052;2022-12-18T08:32:22;43.30;;;16.27;;
47539;SDS011;33280;52.152;21.052;2022-12-18T08:34:49;44.63;;;15.37;;
47539;SDS011;33280;52.152;21.052;2022-12-18T08:37:16;44.63;;;17.30;;
47539;SDS011;33280;52.152;21.052;2022-12-18T08:39:43;43.93;;;16.27;;
47539;SDS011;33280;52.152;21.052;2022-12-18T08:42:10;42.30;;;15.57;;
47539;SDS011;33280;52.152;21.052;2022-12-18T08:44:56;42.93;;;16.23;;
47539;SDS011;33280;52.152;21.052;2022-12-18T08:47:24;43.73;;;15.40;;
47539;SDS011;33280;52.152;21.052;2022-12-18T08:49:52;43.27;;;15.73;;
47539;SDS011;33280;52.152;21.052;2022-12-18T08:52:18;46.77;;;16.17;;
47539;SDS011;33280;52.152;21.052;2022-12-18T08:54:45;44.97;;;16.87;;
47539;SDS011;33280;52.152;21.052;2022-12-18T08:57:12;42.87;;;16.17;;
47539;SDS011;33280;52.152;21.052;2022-12-18T08:59:39;43.73;;;16.23;;
47539;SDS011;33280;52.152;21.052;2022-12-18T09:02:07;43.50;;;16.37;;
47539;SDS011;33280;52.152;21.052;2022-12-18T09:04:37;42.03;;;16.40;;
47539;SDS011;33280;52.152;21.052;2022-12-18T09:07:04;44.80;;;17.50;;
47539;SDS011;33280;52.152;21.052;2022-12-18T09:09:30;46.57;;;17.43;;
47539;SDS011;33280;52.152;21.052;2022-12-18T09:11:57;45.73;;;17.60;;
47539;SDS011;33280;52.152;21.052;2022-12-18T09:14:24;47.00;;;16.60;;
47539;SDS011;33280;52.152;21.052;2022-12-18T09:16:51;44.60;;;17.13;;
47539;SDS011;33280;52.152;21.052;2022-12-18T09:19:18;44.40;;;17.23;;
47539;SDS011;33280;52.152;21.052;2022-12-18T09:21:44;50.03;;;18.53;;
47539;SDS011;33280;52.152;21.052;2022-12-18T09:24:14;48.10;;;18.43;;
47539;SDS011;33280;52.152;21.052;2022-12-18T09:26:41;46.60;;;17.50;;
47539;SDS011;33280;52.152;21.052;2022-12-18T09:29:12;48.90;;;16.97;;
47539;SDS011;33280;52.152;21.052;2022-12-18T09:31:41;45.70;;;17.60;;
47539;SDS011;33280;52.152;21.052;2022-12-18T09:34:08;45.50;;;17.97;;
47539;SDS011;33280;52.152;21.052;2022-12-18T09:36:35;46.03;;;16.90;;
47539;SDS011;33280;52.152;21.052;2022-12-18T09:39:02;52.00;;;18.30;;
47539;SDS011;33280;52.152;21.052;2022-12-18T09:44:28;47.63;;;17.40;;
47539;SDS011;33280;52.152;21.052;2022-12-18T09:49:48;43.77;;;17.83;;
47539;SDS011;33280;52.152;21.052;2022-12-18T09:57:33;50.00;;;19.73;;
47539;SDS011;33280;52.152;21.052;2022-12-18T10:00:13;48.87;;;19.20;;
47539;SDS011;33280;52.152;21.052;2022-12-18T10:02:44;46.13;;;19.33;;
47539;SDS011;33280;52.152;21.052;2022-12-18T10:05:16;54.53;;;19.70;;
47539;SDS011;33280;52.152;21.052;2022-12-18T10:08:00;49.83;;;20.47;;
47539;SDS011;33280;52.152;21.052;2022-12-18T10:21:49;54.53;;;20.80;;
47539;SDS011;33280;52.152;21.052;2022-12-18T10:24:26;57.07;;;21.43;;
47539;SDS011;33280;52.152;21.052;2022-12-18T10:27:18;56.63;;;21.00;;
47539;SDS011;33280;52.152;21.052;2022-12-18T10:29:48;54.13;;;20.57;;
47539;SDS011;33280;52.152;21.052;2022-12-18T10:32:16;58.57;;;22.33;;
47539;SDS011;33280;52.152;21.052;2022-12-18T10:34:46;60.07;;;22.03;;
47539;SDS011;33280;52.152;21.052;2022-12-18T10:37:18;61.87;;;23.23;;
47539;SDS011;33280;52.152;21.052;2022-12-18T10:40:05;63.10;;;22.93;;
47539;SDS011;33280;52.152;21.052;2022-12-18T10:42:55;61.27;;;21.30;;
47539;SDS011;33280;52.152;21.052;2022-12-18T10:45:30;64.00;;;23.03;;
47539;SDS011;33280;52.152;21.052;2022-12-18T10:47:57;59.10;;;22.17;;
47539;SDS011;33280;52.152;21.052;2022-12-18T10:50:28;63.10;;;22.53;;
47539;SDS011;33280;52.152;21.052;2022-12-18T10:53:19;65.00;;;22.13;;
47539;SDS011;33280;52.152;21.052;2022-12-18T10:55:49;62.40;;;21.93;;
47539;SDS011;33280;52.152;21.052;2022-12-18T11:01:16;60.87;;;22.47;;
47539;SDS011;33280;52.152;21.052;2022-12-18T11:03:58;58.07;;;21.73;;
47539;SDS011;33280;52.152;21.052;2022-12-18T11:06:28;60.00;;;22.60;;
47539;SDS011;33280;52.152;21.052;2022-12-18T11:09:03;62.20;;;22.17;;
47539;SDS011;33280;52.152;21.052;2022-12-18T11:11:40;56.03;;;21.93;;
47539;SDS011;33280;52.152;21.052;2022-12-18T11:14:18;52.27;;;20.27;;
47539;SDS011;33280;52.152;21.052;2022-12-18T11:16:49;58.17;;;21.17;;
47539;SDS011;33280;52.152;21.052;2022-12-18T11:19:38;57.83;;;21.20;;
47539;SDS011;33280;52.152;21.052;2022-12-18T11:25:01;56.17;;;20.60;;
47539;SDS011;33280;52.152;21.052;2022-12-18T11:27:53;56.50;;;20.57;;
47539;SDS011;33280;52.152;21.052;2022-12-18T11:30:24;54.07;;;19.87;;
47539;SDS011;33280;52.152;21.052;2022-12-18T11:33:04;57.13;;;20.97;;
47539;SDS011;33280;52.152;21.052;2022-12-18T11:38:32;54.17;;;20.60;;
47539;SDS011;33280;52.152;21.052;2022-12-18T11:43:38;55.13;;;21.13;;
47539;SDS011;33280;52.152;21.052;2022-12-18T11:46:34;54.97;;;20.27;;
47539;SDS011;33280;52.152;21.052;2022-12-18T11:49:09;57.27;;;20.87;;
47539;SDS011;33280;52.152;21.052;2022-12-18T11:51:50;53.87;;;20.47;;
47539;SDS011;33280;52.152;21.052;2022-12-18T11:54:38;57.40;;;20.90;;
47539;SDS011;33280;52.152;21.052;2022-12-18T11:57:16;54.43;;;21.03;;
47539;SDS011;33280;52.152;21.052;2022-12-18T12:11:17;53.10;;;19.07;;
47539;SDS011;33280;52.152;21.052;2022-12-18T12:14:20;53.50;;;19.10;;
47539;SDS011;33280;52.152;21.052;2022-12-18T12:32:39;45.13;;;18.43;;
47539;SDS011;33280;52.152;21.052;2022-12-18T12:35:24;52.27;;;18.83;;
47539;SDS011;33280;52.152;21.052;2022-12-18T12:38:16;51.37;;;18.60;;
47539;SDS011;33280;52.152;21.052;2022-12-18T12:41:18;52.27;;;18.93;;
47539;SDS011;33280;52.152;21.052;2022-12-18T12:44:30;52.30;;;18.87;;
47539;SDS011;33280;52.152;21.052;2022-12-18T12:47:38;53.37;;;19.23;;
47539;SDS011;33280;52.152;21.052;2022-12-18T12:50:01;49.77;;;18.37;;
47539;SDS011;33280;52.152;21.052;2022-12-18T12:52:34;54.07;;;19.60;;
47539;SDS011;33280;52.152;21.052;2022-12-18T12:55:07;51.30;;;18.20;;
47539;SDS011;33280;52.152;21.052;2022-12-18T12:57:46;50.73;;;18.80;;
47539;SDS011;33280;52.152;21.052;2022-12-18T13:00:21;49.97;;;18.97;;
47539;SDS011;33280;52.152;21.052;2022-12-18T13:03:01;52.53;;;18.90;;
47539;SDS011;33280;52.152;21.052;2022-12-18T13:05:48;50.63;;;18.30;;
47539;SDS011;33280;52.152;21.052;2022-12-18T13:08:30;51.57;;;19.17;;
47539;SDS011;33280;52.152;21.052;2022-12-18T13:14:34;47.73;;;18.30;;
47539;SDS011;33280;52.152;21.052;2022-12-18T13:19:50;50.00;;;18.13;;
47539;SDS011;33280;52.152;21.052;2022-12-18T13:24:50;50.77;;;18.87;;
47539;SDS011;33280;52.152;21.052;2022-12-18T13:27:45;48.23;;;18.87;;
47539;SDS011;33280;52.152;21.052;2022-12-18T13:38:55;49.17;;;18.77;;
47539;SDS011;33280;52.152;21.052;2022-12-18T13:43:55;49.13;;;18.23;;
47539;SDS011;33280;52.152;21.052;2022-12-18T13:46:44;52.37;;;19.33;;
47539;SDS011;33280;52.152;21.052;2022-12-18T13:51:42;53.37;;;19.60;;
47539;SDS011;33280;52.152;21.052;2022-12-18T13:54:17;47.17;;;18.07;;
47539;SDS011;33280;52.152;21.052;2022-12-18T13:57:12;51.70;;;17.10;;
47539;SDS011;33280;52.152;21.052;2022-12-18T13:59:59;49.00;;;18.70;;
47539;SDS011;33280;52.152;21.052;2022-12-18T14:02:48;50.70;;;17.63;;
47539;SDS011;33280;52.152;21.052;2022-12-18T14:07:52;44.77;;;17.77;;
47539;SDS011;33280;52.152;21.052;2022-12-18T14:10:21;55.97;;;18.87;;
47539;SDS011;33280;52.152;21.052;2022-12-18T14:13:10;54.10;;;19.23;;
47539;SDS011;33280;52.152;21.052;2022-12-18T14:15:43;54.20;;;19.40;;
47539;SDS011;33280;52.152;21.052;2022-12-18T14:20:43;50.10;;;19.43;;
47539;SDS011;33280;52.152;21.052;2022-12-18T14:26:25;44.27;;;18.03;;
47539;SDS011;33280;52.152;21.052;2022-12-18T14:28:55;49.80;;;18.20;;
47539;SDS011;33280;52.152;21.052;2022-12-18T14:31:25;49.40;;;19.07;;
47539;SDS011;33280;52.152;21.052;2022-12-18T14:33:53;46.93;;;19.03;;
47539;SDS011;33280;52.152;21.052;2022-12-18T14:36:21;52.87;;;19.93;;
47539;SDS011;33280;52.152;21.052;2022-12-18T14:38:51;48.03;;;19.63;;
47539;SDS011;33280;52.152;21.052;2022-12-18T14:41:22;47.77;;;18.27;;
47539;SDS011;33280;52.152;21.052;2022-12-18T14:43:51;51.50;;;20.17;;
47539;SDS011;33280;52.152;21.052;2022-12-18T14:49:48;48.67;;;19.97;;
47539;SDS011;33280;52.152;21.052;2022-12-18T14:51:56;51.83;;;18.87;;
47539;SDS011;33280;52.152;21.052;2022-12-18T14:54:29;47.87;;;18.83;;
47539;SDS011;33280;52.152;21.052;2022-12-18T14:57:01;56.40;;;20.33;;
47539;SDS011;33280;52.152;21.052;2022-12-18T14:59:31;48.47;;;19.07;;
47539;SDS011;33280;52.152;21.052;2022-12-18T15:04:35;47.40;;;18.00;;
47539;SDS011;33280;52.152;21.052;2022-12-18T15:07:14;47.97;;;18.50;;
47539;SDS011;33280;52.152;21.052;2022-12-18T15:09:43;42.77;;;17.47;;
47539;SDS011;33280;52.152;21.052;2022-12-18T15:12:35;46.60;;;17.67;;
47539;SDS011;33280;52.152;21.052;2022-12-18T15:15:05;43.73;;;17.90;;
47539;SDS011;33280;52.152;21.052;2022-12-18T15:18:16;46.47;;;17.27;;
47539;SDS011;33280;52.152;21.052;2022-12-18T15:23:35;48.00;;;17.80;;
47539;SDS011;33280;52.152;21.052;2022-12-18T15:26:18;53.23;;;18.33;;
47539;SDS011;33280;52.152;21.052;2022-12-18T15:28:50;48.00;;;17.23;;
47539;SDS011;33280;52.152;21.052;2022-12-18T15:31:34;51.07;;;19.77;;
47539;SDS011;33280;52.152;21.052;2022-12-18T15:36:34;49.80;;;18.97;;
47539;SDS011;33280;52.152;21.052;2022-12-18T15:39:02;51.97;;;19.43;;
47539;SDS011;33280;52.152;21.052;2022-12-18T15:41:32;48.30;;;18.47;;
47539;SDS011;33280;52.152;21.052;2022-12-18T15:44:01;49.30;;;19.70;;
47539;SDS011;33280;52.152;21.052;2022-12-18T15:46:29;53.63;;;20.10;;
47539;SDS011;33280;52.152;21.052;2022-12-18T15:48:57;45.10;;;18.10;;
47539;SDS011;33280;52.152;21.052;2022-12-18T15:51:28;44.07;;;17.23;;
47539;SDS011;33280;52.152;21.052;2022-12-18T15:54:01;43.57;;;15.80;;
47539;SDS011;33280;52.152;21.052;2022-12-18T15:56:30;44.93;;;17.33;;
47539;SDS011;33280;52.152;21.052;2022-12-18T15:59:17;37.90;;;13.97;;
47539;SDS011;33280;52.152;21.052;2022-12-18T16:01:46;41.57;;;15.63;;
47539;SDS011;33280;52.152;21.052;2022-12-18T16:04:15;36.23;;;14.73;;
47539;SDS011;33280;52.152;21.052;2022-12-18T16:06:46;39.40;;;15.97;;
47539;SDS011;33280;52.152;21.052;2022-12-18T16:09:33;38.53;;;14.87;;
47539;SDS011;33280;52.152;21.052;2022-12-18T16:12:00;43.23;;;16.20;;
47539;SDS011;33280;52.152;21.052;2022-12-18T16:14:28;38.30;;;15.77;;
47539;SDS011;33280;52.152;21.052;2022-12-18T16:16:57;38.37;;;15.07;;
47539;SDS011;33280;52.152;21.052;2022-12-18T16:19:27;43.67;;;14.73;;
47539;SDS011;33280;52.152;21.052;2022-12-18T16:21:55;43.63;;;15.53;;
47539;SDS011;33280;52.152;21.052;2022-12-18T16:24:24;42.07;;;16.10;;
47539;SDS011;33280;52.152;21.052;2022-12-18T16:26:53;43.27;;;16.53;;
47539;SDS011;33280;52.152;21.052;2022-12-18T16:29:21;44.30;;;17.37;;
47539;SDS011;33280;52.152;21.052;2022-12-18T16:31:54;46.63;;;17.50;;
47539;SDS011;33280;52.152;21.052;2022-12-18T16:34:22;45.10;;;16.73;;
47539;SDS011;33280;52.152;21.052;2022-12-18T16:36:59;43.90;;;16.90;;
47539;SDS011;33280;52.152;21.052;2022-12-18T16:39:31;45.23;;;17.30;;
47539;SDS011;33280;52.152;21.052;2022-12-18T16:42:04;47.37;;;17.37;;
47539;SDS011;33280;52.152;21.052;2022-12-18T16:44:40;44.07;;;17.57;;
47539;SDS011;33280;52.152;21.052;2022-12-18T16:47:08;50.90;;;18.03;;
47539;SDS011;33280;52.152;21.052;2022-12-18T16:49:38;45.20;;;17.43;;